This is the latest recevied weather packets stored in our database for station/object KN6WGU. If no packets are shown the sender has not sent any weather packets the latest 10 day(s).
| Time | Temp. | Humidity | Pressure | Rain* | Wind** | Luminosity | Snow |
|---|---|---|---|---|---|---|---|
| 1778020028 | 10° C | 98% | 1002 hPa | 4.83 mm | - | 22 W/m² | - |
| 1778019724 | 10.56° C | 98% | 1002 hPa | 4.83 mm | - | 7 W/m² | - |
| 1778019422 | 10.56° C | 98% | 1001.5 hPa | 4.83 mm | - | 24 W/m² | - |
| 1778019118 | 10.56° C | 98% | 1001.5 hPa | 4.83 mm | - | 28 W/m² | - |
| 1778018815 | 10.56° C | 98% | 1001.8 hPa | 10.16 mm | - | 19 W/m² | - |
| 1778018513 | 10.56° C | 98% | 1001.9 hPa | 13.72 mm | - | 23 W/m² | - |
| 1778018210 | 10.56° C | 98% | 1001.8 hPa | 7.87 mm | - | 11 W/m² | - |
| 1778017909 | 10.56° C | 98% | 1001.5 hPa | 6.1 mm | - | 21 W/m² | - |
| 1778017606 | 11.11° C | 98% | 1001.3 hPa | 4.83 mm | - | 11 W/m² | - |
| 1778017303 | 11.11° C | 98% | 1001.4 hPa | 3.05 mm | - | 8 W/m² | - |
| 1778017001 | 10.56° C | 98% | 1000.9 hPa | 3.05 mm | - | 31 W/m² | - |
| 1778016697 | 10.56° C | 98% | 1001.1 hPa | 3.05 mm | - | 34 W/m² | - |
| 1778016393 | 10.56° C | 98% | 1001.3 hPa | 1.27 mm | - | 16 W/m² | - |
| 1778016091 | 10.56° C | 98% | 1001.3 hPa | 4.32 mm | - | 27 W/m² | - |
| 1778015788 | 11.11° C | 98% | 1001 hPa | 6.6 mm | - | 57 W/m² | - |
| 1778015485 | 11.11° C | 98% | 1000.9 hPa | 6.1 mm | - | 71 W/m² | - |
| 1778015182 | 11.67° C | 98% | 1001.1 hPa | 3.05 mm | - | 26 W/m² | - |
| 1778014878 | 11.67° C | 98% | 1001 hPa | 3.05 mm | - | 27 W/m² | - |
| 1778014576 | 11.67° C | 98% | 1001.3 hPa | 7.87 mm | - | 20 W/m² | - |
| 1778014274 | 11.67° C | 98% | 1001.2 hPa | 6.1 mm | - | 30 W/m² | - |
| 1778013970 | 11.67° C | 98% | 1001.2 hPa | 3.05 mm | - | 40 W/m² | - |
| 1778013668 | 11.67° C | 97% | 1001.3 hPa | 3.05 mm | - | 38 W/m² | - |
| 1778013364 | 11.67° C | 97% | 1001.3 hPa | 4.32 mm | - | 23 W/m² | - |
| 1778013062 | 11.67° C | 97% | 1001.1 hPa | 12.7 mm | - | 39 W/m² | - |
| 1778012757 | 11.67° C | 97% | 1001.2 hPa | 13.72 mm | - | 25 W/m² | - |
* Rain latest hour (hover to see other rain measurements)
** Current wind speed in m/s (hover to see current wind gust speed)